Time;durP1;ratioP1;P1;durP2;ratioP2;P2;SDS_P1;SDS_P2;PMS_P1;PMS_P2;Temp;Humidity;BMP_temperature;BMP_pressure;BME280_temperature;BME280_humidity;BME280_pressure;Samples;Min_cycle;Max_cycle;Signal;HPM_P1;HPM_P2
2021/09/25 00:01:51;;;;;;;5.65;3.17;;;;;;;19.06;53.93;100331.31;4362503;32;33391;-85
2021/09/25 00:04:20;;;;;;;6.53;3.50;;;;;;;18.83;54.75;100328.16;4338188;32;33547;-85
2021/09/25 00:06:48;;;;;;;8.15;3.30;;;;;;;18.44;55.52;100331.19;4362916;32;33644;-85
2021/09/25 00:09:16;;;;;;;6.10;3.12;;;;;;;18.31;56.09;100336.31;4350660;32;33397;-85
2021/09/25 00:11:44;;;;;;;6.07;3.53;;;;;;;18.41;55.76;100339.28;4350309;32;32612;-86
2021/09/25 00:14:11;;;;;;;6.53;3.17;;;;;;;18.53;55.52;100347.41;4350539;32;33945;-85
2021/09/25 00:16:39;;;;;;;7.20;3.42;;;;;;;18.68;55.06;100337.78;4362378;32;34741;-85
2021/09/25 00:19:07;;;;;;;5.65;3.20;;;;;;;18.63;55.36;100346.91;4349905;32;32758;-84
2021/09/25 00:21:35;;;;;;;6.32;3.87;;;;;;;18.65;54.99;100337.09;4349569;32;33677;-85
2021/09/25 00:24:03;;;;;;;5.22;3.25;;;;;;;18.55;55.27;100334.12;4350171;32;33649;-85
2021/09/25 00:26:31;;;;;;;6.20;3.30;;;;;;;18.35;56.02;100338.69;4362419;32;34885;-84
2021/09/25 00:28:59;;;;;;;5.15;2.97;;;;;;;18.45;55.60;100333.75;4355334;32;33238;-84
2021/09/25 00:31:26;;;;;;;5.50;3.08;;;;;;;18.62;54.89;100334.63;4378242;32;33319;-84
2021/09/25 00:33:54;;;;;;;6.30;3.05;;;;;;;18.86;54.26;100335.06;4362724;32;33651;-84
2021/09/25 00:36:23;;;;;;;5.87;3.10;;;;;;;18.86;54.23;100332.41;4350473;32;34034;-85
2021/09/25 00:38:50;;;;;;;4.93;3.22;;;;;;;18.54;54.92;100332.41;4349681;32;33038;-84
2021/09/25 00:41:20;;;;;;;6.00;3.30;;;;;;;18.47;55.31;100338.97;4349820;32;32376;-84
2021/09/25 00:43:48;;;;;;;6.55;3.42;;;;;;;18.78;54.27;100334.63;4350426;32;33565;-85
2021/09/25 00:46:17;;;;;;;7.85;3.90;;;;;;;18.52;55.31;100342.19;4349794;32;33321;-86
2021/09/25 00:48:47;;;;;;;6.50;3.58;;;;;;;18.41;55.85;100350.69;4362085;32;33262;-84
2021/09/25 00:51:15;;;;;;;6.87;3.50;;;;;;;18.25;56.73;100357.72;4362136;32;32408;-84
2021/09/25 00:53:43;;;;;;;6.55;3.47;;;;;;;18.01;57.53;100358.91;4361878;32;34553;-84
2021/09/25 00:56:12;;;;;;;7.60;3.62;;;;;;;17.95;57.90;100366.28;4362309;32;33264;-84
2021/09/25 00:58:40;;;;;;;6.93;3.90;;;;;;;18.00;57.73;100362.50;4362087;32;33384;-84
2021/09/25 01:01:08;;;;;;;5.70;3.75;;;;;;;18.01;57.61;100366.00;4338129;32;32358;-85
2021/09/25 01:03:38;;;;;;;5.80;4.00;;;;;;;17.65;58.89;100359.84;4374711;32;33754;-84
2021/09/25 01:06:07;;;;;;;7.18;4.05;;;;;;;17.39;59.85;100362.94;4362288;32;33644;-85
2021/09/25 01:08:35;;;;;;;7.12;4.07;;;;;;;17.53;59.45;100363.13;4362439;32;34317;-85
2021/09/25 01:11:08;;;;;;;6.40;4.10;;;;;;;17.76;58.66;100369.00;4350416;32;33168;-86
2021/09/25 01:13:36;;;;;;;6.85;4.40;;;;;;;17.39;59.94;100373.47;4362478;32;33923;-85
2021/09/25 01:16:04;;;;;;;7.60;3.97;;;;;;;17.25;60.53;100372.37;4349743;32;33341;-85
2021/09/25 01:18:34;;;;;;;6.43;4.20;;;;;;;17.01;61.52;100369.16;4350146;32;33742;-85
2021/09/25 01:21:05;;;;;;;6.55;3.92;;;;;;;17.51;59.81;100372.91;4350317;32;33847;-85
2021/09/25 01:23:33;;;;;;;7.75;4.57;;;;;;;17.47;59.85;100371.31;4362115;32;33417;-85
2021/09/25 01:26:01;;;;;;;6.95;4.05;;;;;;;17.77;58.90;100373.34;4362167;32;33401;-84
2021/09/25 01:28:31;;;;;;;7.00;4.15;;;;;;;17.90;58.45;100373.59;4362363;32;34110;-85
2021/09/25 01:31:00;;;;;;;9.88;4.65;;;;;;;18.07;57.90;100370.06;4361649;32;32840;-85
2021/09/25 01:33:39;;;;;;;7.97;4.35;;;;;;;18.16;57.43;100370.47;4374514;32;33678;-86
2021/09/25 01:36:08;;;;;;;6.32;4.05;;;;;;;18.01;57.95;100368.63;4361538;32;34923;-86
2021/09/25 01:38:37;;;;;;;7.47;4.28;;;;;;;17.96;58.11;100368.87;4361716;32;33988;-85
2021/09/25 01:41:06;;;;;;;6.72;4.05;;;;;;;18.35;56.87;100364.22;4374738;32;33433;-86
2021/09/25 01:43:34;;;;;;;6.93;4.00;;;;;;;18.33;56.72;100359.03;4374679;32;34093;-85
2021/09/25 01:46:02;;;;;;;7.37;4.53;;;;;;;18.41;56.41;100360.41;4349784;32;34237;-86
2021/09/25 01:48:30;;;;;;;7.10;4.47;;;;;;;18.22;56.80;100363.16;4374534;32;34450;-85
2021/09/25 01:50:59;;;;;;;7.75;4.53;;;;;;;17.98;57.38;100367.00;4362025;32;33491;-85
2021/09/25 01:53:27;;;;;;;8.90;5.18;;;;;;;18.07;56.94;100370.94;4361861;32;33797;-85
2021/09/25 01:55:55;;;;;;;8.68;4.70;;;;;;;18.15;56.61;100378.47;4374411;32;34587;-85
2021/09/25 01:58:23;;;;;;;6.68;4.45;;;;;;;17.84;57.62;100367.69;4337695;32;33543;-85
2021/09/25 02:00:51;;;;;;;8.82;5.18;;;;;;;17.92;57.36;100379.63;4349944;32;32807;-85
2021/09/25 02:03:20;;;;;;;6.93;4.65;;;;;;;17.93;57.25;100369.00;4349249;32;33771;-86
2021/09/25 02:05:49;;;;;;;7.68;5.05;;;;;;;17.86;57.55;100373.72;4362014;32;33887;-85
2021/09/25 02:08:17;;;;;;;6.87;4.32;;;;;;;17.88;57.48;100381.53;4337158;32;33078;-85
2021/09/25 02:10:45;;;;;;;7.35;4.40;;;;;;;17.50;58.81;100376.44;4348593;32;33600;-85
2021/09/25 02:13:13;;;;;;;6.45;4.10;;;;;;;17.58;58.34;100384.81;4325419;32;32793;-85
2021/09/25 02:15:41;;;;;;;6.12;4.07;;;;;;;17.75;57.48;100381.34;4349844;32;33198;-86
2021/09/25 02:18:09;;;;;;;8.35;4.60;;;;;;;17.61;57.75;100381.19;4349545;32;34056;-85
2021/09/25 02:20:38;;;;;;;7.00;4.70;;;;;;;17.62;57.68;100381.09;4337616;32;33748;-86
2021/09/25 02:23:06;;;;;;;7.20;4.82;;;;;;;17.56;58.31;100388.47;4361960;32;34153;-85
2021/09/25 02:25:34;;;;;;;7.62;5.12;;;;;;;17.33;58.92;100383.37;4349432;32;33785;-85
2021/09/25 02:28:03;;;;;;;7.40;4.47;;;;;;;17.23;59.20;100395.31;4350073;32;34700;-85
2021/09/25 02:30:30;;;;;;;8.15;5.35;;;;;;;17.36;59.08;100395.53;4348686;32;32801;-84
2021/09/25 02:32:58;;;;;;;11.12;5.15;;;;;;;17.21;59.58;100397.16;4349217;32;34483;-86
2021/09/25 02:35:27;;;;;;;6.85;4.37;;;;;;;17.01;60.23;100385.78;4337121;32;33460;-85
2021/09/25 02:37:55;;;;;;;6.43;4.60;;;;;;;16.78;60.57;100394.75;4337287;32;33769;-86
2021/09/25 02:40:25;;;;;;;6.97;4.20;;;;;;;16.84;60.14;100404.13;4361648;32;34078;-85
2021/09/25 02:42:53;;;;;;;7.75;4.50;;;;;;;16.91;59.72;100400.34;4361676;32;34190;-85
2021/09/25 02:45:22;;;;;;;8.52;4.57;;;;;;;17.00;59.43;100413.06;4349117;32;33545;-86
2021/09/25 02:47:49;;;;;;;7.12;4.20;;;;;;;16.67;60.76;100418.91;4361245;32;33929;-85
2021/09/25 02:50:20;;;;;;;7.37;4.28;;;;;;;17.03;59.64;100417.28;4349459;32;32755;-85
2021/09/25 02:52:48;;;;;;;9.05;5.87;;;;;;;16.80;60.65;100424.47;4348461;32;32973;-86
2021/09/25 02:55:16;;;;;;;8.82;4.50;;;;;;;16.87;60.56;100430.28;4349212;32;34102;-85
2021/09/25 02:57:45;;;;;;;6.30;4.03;;;;;;;16.70;60.40;100437.19;4360748;32;33599;-85
2021/09/25 03:00:18;;;;;;;7.75;3.80;;;;;;;16.87;58.83;100430.28;4360958;32;33963;-85
2021/09/25 03:02:48;;;;;;;6.95;3.85;;;;;;;16.86;58.85;100428.59;4360908;32;34411;-87
2021/09/25 03:05:18;;;;;;;7.12;3.78;;;;;;;16.87;58.47;100433.78;4360827;32;33417;-85
2021/09/25 03:07:46;;;;;;;7.12;4.47;;;;;;;16.70;59.09;100438.97;4361004;32;33026;-85
2021/09/25 03:10:13;;;;;;;8.73;4.60;;;;;;;16.51;60.00;100439.81;4360407;32;33301;-85
2021/09/25 03:12:41;;;;;;;9.02;5.93;;;;;;;16.74;59.48;100442.31;4336296;32;33217;-86
2021/09/25 03:15:10;;;;;;;10.82;6.68;;;;;;;16.79;59.27;100449.09;4361223;32;33835;-84
2021/09/25 03:17:38;;;;;;;7.43;4.65;;;;;;;16.81;59.60;100454.28;4360406;32;32967;-85
2021/09/25 03:20:07;;;;;;;8.25;5.00;;;;;;;16.11;61.98;100456.44;4348300;32;33050;-86
2021/09/25 03:22:37;;;;;;;8.00;4.93;;;;;;;16.14;62.22;100453.69;4362366;32;33956;-84
2021/09/25 03:25:09;;;;;;;8.95;5.80;;;;;;;16.17;62.09;100448.31;4338507;32;34140;-85
2021/09/25 03:27:37;;;;;;;9.70;6.03;;;;;;;16.32;61.61;100455.53;4375812;32;33773;-85
2021/09/25 03:30:08;;;;;;;9.20;5.85;;;;;;;16.57;60.85;100454.44;4362698;32;33189;-85
2021/09/25 03:32:36;;;;;;;9.02;5.07;;;;;;;16.60;60.32;100456.94;4350528;32;33061;-85
2021/09/25 03:35:05;;;;;;;8.60;5.35;;;;;;;16.27;61.65;100452.22;4375252;32;35046;-84
2021/09/25 03:37:33;;;;;;;9.77;6.22;;;;;;;16.45;60.73;100450.59;4351056;32;33023;-85
2021/09/25 03:40:02;;;;;;;10.30;6.82;;;;;;;16.26;61.43;100454.94;4353783;32;32559;-84
2021/09/25 03:42:30;;;;;;;7.35;5.00;;;;;;;16.30;61.13;100456.50;4377539;32;34102;-85
2021/09/25 03:44:58;;;;;;;7.68;4.40;;;;;;;16.27;60.46;100454.84;4350478;32;33135;-86
2021/09/25 03:47:26;;;;;;;9.10;5.85;;;;;;;16.07;60.07;100444.37;4350992;32;33927;-85
2021/09/25 03:49:54;;;;;;;6.37;4.05;;;;;;;16.30;59.90;100444.22;4350794;32;33128;-85
2021/09/25 03:52:22;;;;;;;6.95;3.97;;;;;;;15.83;59.96;100441.84;4350206;32;32953;-85
2021/09/25 03:54:50;;;;;;;8.27;5.20;;;;;;;16.36;58.52;100445.72;4350778;32;33328;-85
2021/09/25 03:57:19;;;;;;;7.80;5.93;;;;;;;15.93;60.28;100451.06;4363313;32;33919;-85
2021/09/25 03:59:47;;;;;;;7.75;4.53;;;;;;;15.96;60.48;100453.53;4363011;32;33341;-85
2021/09/25 04:02:15;;;;;;;8.90;4.22;;;;;;;15.66;60.91;100460.87;4350340;32;32974;-85
2021/09/25 04:04:43;;;;;;;5.68;3.55;;;;;;;16.03;59.35;100460.28;4350301;32;33877;-85
2021/09/25 04:07:11;;;;;;;12.18;4.18;;;;;;;16.15;58.13;100458.03;4350716;32;33381;-85
2021/09/25 04:09:39;;;;;;;6.75;3.70;;;;;;;16.02;58.04;100468.19;4375144;32;33155;-85
2021/09/25 04:12:07;;;;;;;6.87;4.00;;;;;;;15.81;58.82;100464.72;4350597;32;33395;-85
2021/09/25 04:14:35;;;;;;;6.62;3.90;;;;;;;15.86;59.11;100462.72;4362295;32;33523;-85
2021/09/25 04:17:03;;;;;;;7.40;4.72;;;;;;;16.09;58.46;100461.78;4362713;32;33479;-86
2021/09/25 04:19:31;;;;;;;6.85;4.43;;;;;;;15.96;59.21;100468.47;4362279;32;33137;-84
2021/09/25 04:21:59;;;;;;;7.50;3.95;;;;;;;15.98;58.99;100470.13;4350814;32;33352;-86
2021/09/25 04:24:26;;;;;;;7.30;4.50;;;;;;;15.44;60.26;100466.16;4350278;32;34342;-85
2021/09/25 04:26:55;;;;;;;7.62;4.22;;;;;;;15.86;58.75;100473.22;4362951;32;34239;-85
2021/09/25 04:29:24;;;;;;;6.53;3.95;;;;;;;15.40;59.48;100475.94;4361943;32;33412;-85
2021/09/25 04:31:51;;;;;;;6.60;4.65;;;;;;;15.33;59.72;100482.34;4338263;32;32779;-86
2021/09/25 04:34:21;;;;;;;6.55;4.35;;;;;;;15.82;58.31;100480.41;4362251;32;34217;-85
2021/09/25 04:36:49;;;;;;;7.15;4.53;;;;;;;15.90;58.42;100495.88;4362563;32;33705;-86
2021/09/25 04:39:17;;;;;;;7.20;4.40;;;;;;;15.95;58.46;100499.13;4350011;32;32629;-86
2021/09/25 04:41:45;;;;;;;6.55;4.37;;;;;;;16.00;58.17;100497.19;4350107;32;34547;-86
2021/09/25 04:44:15;;;;;;;7.43;4.78;;;;;;;15.52;59.59;100501.69;4337636;32;33921;-85
2021/09/25 04:46:43;;;;;;;7.55;4.60;;;;;;;15.75;58.61;100497.28;4349690;32;32952;-85
2021/09/25 04:49:15;;;;;;;8.43;4.78;;;;;;;15.37;60.17;100502.31;4362655;32;33719;-85
2021/09/25 04:51:43;;;;;;;7.57;4.72;;;;;;;15.77;59.45;100495.47;4361758;32;33832;-85
2021/09/25 04:54:10;;;;;;;8.52;5.07;;;;;;;15.48;60.85;100501.87;4349966;32;33879;-86
2021/09/25 04:56:38;;;;;;;7.10;4.82;;;;;;;15.48;61.31;100512.41;4350194;32;33336;-85
2021/09/25 04:59:06;;;;;;;8.80;5.43;;;;;;;15.59;61.13;100510.19;4338246;32;34174;-85
2021/09/25 05:01:34;;;;;;;8.95;5.82;;;;;;;15.55;61.61;100515.63;4349966;32;32736;-86
2021/09/25 05:04:07;;;;;;;7.80;5.35;;;;;;;15.75;61.07;100522.72;4362811;32;34132;-85
2021/09/25 05:06:36;;;;;;;7.87;5.50;;;;;;;15.76;61.40;100524.44;4350583;32;32886;-86
2021/09/25 05:09:05;;;;;;;7.80;5.15;;;;;;;15.84;61.59;100532.91;4374753;32;34341;-86
2021/09/25 05:11:32;;;;;;;8.35;4.78;;;;;;;15.76;62.23;100532.31;4349764;32;34371;-86
2021/09/25 05:14:01;;;;;;;8.40;5.45;;;;;;;15.99;61.68;100532.28;4351369;32;33472;-85
2021/09/25 05:16:29;;;;;;;9.88;5.97;;;;;;;16.34;61.05;100536.97;4374704;32;34137;-85
2021/09/25 05:18:56;;;;;;;9.02;5.55;;;;;;;15.80;63.06;100532.16;4349665;32;33310;-86
2021/09/25 05:21:24;;;;;;;8.57;4.90;;;;;;;16.37;61.18;100540.31;4349850;32;33340;-86
2021/09/25 05:23:52;;;;;;;7.20;4.82;;;;;;;16.09;61.44;100535.37;4338109;32;33121;-86
2021/09/25 05:26:20;;;;;;;8.25;5.55;;;;;;;16.20;61.33;100543.66;4337607;32;33208;-86
2021/09/25 05:28:48;;;;;;;8.02;5.10;;;;;;;16.17;61.24;100535.06;4349996;32;34008;-86
2021/09/25 05:31:16;;;;;;;9.10;5.35;;;;;;;16.29;60.83;100534.53;4362093;32;33562;-86
2021/09/25 05:33:44;;;;;;;7.32;5.15;;;;;;;16.33;60.97;100541.38;4350061;32;34185;-85
2021/09/25 05:36:11;;;;;;;9.63;5.87;;;;;;;16.11;62.17;100540.56;4349672;32;34151;-85
2021/09/25 05:38:40;;;;;;;9.90;5.72;;;;;;;16.59;60.82;100536.78;4362332;32;33529;-85
2021/09/25 05:41:08;;;;;;;9.48;6.05;;;;;;;16.78;60.31;100533.34;4350085;32;34157;-85
2021/09/25 05:43:35;;;;;;;9.73;5.57;;;;;;;16.61;60.97;100534.09;4350061;32;33438;-86
2021/09/25 05:46:04;;;;;;;9.32;5.57;;;;;;;16.81;60.49;100531.44;4348332;32;33109;-85
2021/09/25 05:48:33;;;;;;;8.80;5.93;;;;;;;16.78;60.83;100538.59;4362127;32;33216;-87
2021/09/25 05:51:03;;;;;;;8.70;5.43;;;;;;;16.85;60.70;100533.00;4361779;32;33226;-85
2021/09/25 05:53:31;;;;;;;11.15;6.15;;;;;;;16.87;60.86;100532.94;4361703;32;33882;-85
2021/09/25 05:55:59;;;;;;;8.75;5.90;;;;;;;17.02;60.60;100529.66;4337748;32;32986;-86
2021/09/25 05:58:27;;;;;;;12.02;6.28;;;;;;;17.06;60.60;100540.03;4337837;32;32706;-86
2021/09/25 06:00:55;;;;;;;10.68;6.53;;;;;;;17.15;60.71;100536.97;4349860;32;33456;-86
2021/09/25 06:03:25;;;;;;;10.70;6.30;;;;;;;17.34;60.36;100537.84;4362124;32;34188;-86
2021/09/25 06:05:53;;;;;;;9.95;6.25;;;;;;;17.14;61.31;100537.94;4349885;32;34249;-86
2021/09/25 06:08:21;;;;;;;10.57;7.35;;;;;;;17.29;60.96;100547.75;4337200;32;33785;-85
2021/09/25 06:10:49;;;;;;;8.63;5.90;;;;;;;17.22;61.36;100548.09;4361385;32;34140;-86
2021/09/25 06:13:17;;;;;;;8.95;6.35;;;;;;;17.58;60.45;100547.31;4349729;32;34415;-85
2021/09/25 06:15:45;;;;;;;8.77;6.15;;;;;;;17.68;60.13;100538.91;4349328;32;32958;-87
2021/09/25 06:18:13;;;;;;;9.38;5.82;;;;;;;17.63;60.47;100545.31;4361974;32;34415;-85
2021/09/25 06:20:42;;;;;;;10.65;5.57;;;;;;;17.75;60.37;100549.13;4361717;32;33157;-86
2021/09/25 06:23:09;;;;;;;9.38;5.70;;;;;;;18.08;59.39;100548.47;4349365;32;34216;-86
2021/09/25 06:25:38;;;;;;;9.73;6.35;;;;;;;18.03;59.48;100548.69;4375425;32;34791;-86
2021/09/25 06:28:05;;;;;;;11.18;5.75;;;;;;;18.13;59.15;100547.28;4349074;32;33923;-86
2021/09/25 06:30:40;;;;;;;7.50;5.50;;;;;;;18.35;58.52;100547.06;4349236;32;35062;-86
2021/09/25 06:33:09;;;;;;;8.65;5.80;;;;;;;18.45;58.21;100544.81;4350001;32;34725;-86
2021/09/25 06:35:37;;;;;;;9.95;5.62;;;;;;;18.39;58.24;100554.81;4361402;32;33657;-85
2021/09/25 06:38:05;;;;;;;9.43;5.75;;;;;;;18.37;58.27;100549.63;4349311;32;33227;-86
2021/09/25 06:40:33;;;;;;;9.13;5.78;;;;;;;18.58;57.74;100542.41;4360574;32;34148;-86
2021/09/25 06:43:03;;;;;;;9.23;5.70;;;;;;;18.75;57.33;100553.91;4348862;32;33451;-85
2021/09/25 06:45:32;;;;;;;8.23;5.20;;;;;;;19.02;56.59;100544.53;4361684;32;33737;-85
2021/09/25 06:48:01;;;;;;;8.02;5.03;;;;;;;19.15;56.22;100544.72;4360539;32;32221;-84
2021/09/25 06:50:29;;;;;;;9.63;5.57;;;;;;;19.33;55.80;100547.28;4357393;32;33835;-83
2021/09/25 06:52:57;;;;;;;11.68;6.10;;;;;;;18.96;56.61;100552.78;4355613;32;34284;-83
2021/09/25 06:55:26;;;;;;;8.32;4.65;;;;;;;19.20;56.11;100544.50;4349611;32;33417;-85
2021/09/25 06:57:55;;;;;;;8.38;4.87;;;;;;;19.47;55.49;100543.91;4362546;32;33870;-85
2021/09/25 07:00:25;;;;;;;8.38;5.68;;;;;;;19.66;54.96;100543.72;4351219;32;33318;-84
2021/09/25 07:02:52;;;;;;;8.43;5.10;;;;;;;19.30;55.67;100543.03;4350736;32;32640;-85
2021/09/25 07:05:20;;;;;;;6.95;4.47;;;;;;;19.21;56.09;100551.44;4338561;32;34468;-84
2021/09/25 07:07:50;;;;;;;8.88;4.78;;;;;;;19.88;54.19;100558.41;4363010;32;33581;-84
2021/09/25 07:10:18;;;;;;;7.37;4.57;;;;;;;20.17;53.22;100552.28;4351005;32;34337;-84
2021/09/25 07:12:46;;;;;;;6.90;4.43;;;;;;;20.22;53.13;100557.31;4350248;32;34470;-84
2021/09/25 07:15:14;;;;;;;8.73;4.57;;;;;;;20.42;52.55;100557.94;4363315;32;33959;-84
2021/09/25 07:17:42;;;;;;;6.72;4.25;;;;;;;20.58;51.87;100558.75;4363119;32;33606;-84
2021/09/25 07:20:10;;;;;;;7.30;4.18;;;;;;;20.56;51.88;100554.47;4362846;32;33948;-84
2021/09/25 07:22:39;;;;;;;8.38;4.60;;;;;;;20.50;51.80;100560.97;4375180;32;33008;-85
2021/09/25 07:25:07;;;;;;;6.87;4.30;;;;;;;20.79;51.14;100558.41;4350850;32;33306;-85
2021/09/25 07:27:35;;;;;;;6.62;4.15;;;;;;;21.09;50.22;100560.13;4350127;32;33501;-84
2021/09/25 07:30:08;;;;;;;6.55;4.05;;;;;;;21.20;49.78;100560.31;4363314;32;32987;-84
2021/09/25 07:32:36;;;;;;;6.70;4.53;;;;;;;21.30;49.29;100560.56;4350233;32;34248;-84
2021/09/25 07:35:05;;;;;;;7.85;4.40;;;;;;;21.51;48.75;100558.34;4338341;32;33471;-85
2021/09/25 07:37:34;;;;;;;8.00;4.50;;;;;;;21.30;49.10;100558.78;4362902;32;32841;-84
2021/09/25 07:40:05;;;;;;;6.18;3.97;;;;;;;21.37;48.89;100553.94;4350344;32;34066;-85
2021/09/25 07:42:32;;;;;;;6.53;3.90;;;;;;;21.75;47.90;100557.75;4362343;32;33695;-85
2021/09/25 07:45:01;;;;;;;6.40;3.83;;;;;;;21.57;48.35;100563.31;4350585;32;32843;-84
2021/09/25 07:47:28;;;;;;;6.35;4.03;;;;;;;21.96;47.36;100564.31;4362756;32;33366;-85
2021/09/25 07:49:56;;;;;;;6.68;4.10;;;;;;;22.01;47.24;100564.84;4349824;32;34203;-84
2021/09/25 07:52:24;;;;;;;6.22;3.90;;;;;;;22.06;47.20;100569.88;4338014;32;33791;-85
2021/09/25 07:54:52;;;;;;;6.37;4.05;;;;;;;22.31;46.39;100557.59;4362184;32;34139;-86
2021/09/25 07:57:19;;;;;;;5.90;3.60;;;;;;;22.45;46.05;100562.03;4350210;32;33640;-85
2021/09/25 07:59:48;;;;;;;5.43;3.42;;;;;;;22.60;45.70;100563.66;4350351;32;33045;-85
2021/09/25 08:02:16;;;;;;;5.68;3.45;;;;;;;22.83;44.95;100564.72;4337640;32;33852;-83
2021/09/25 08:04:44;;;;;;;5.37;3.35;;;;;;;22.94;44.41;100563.97;4362269;32;33746;-85
2021/09/25 08:07:12;;;;;;;5.65;3.47;;;;;;;22.96;44.05;100569.16;4362555;32;32289;-85
2021/09/25 08:09:40;;;;;;;5.95;3.35;;;;;;;23.12;43.61;100574.25;4349282;32;33130;-86
2021/09/25 08:12:12;;;;;;;6.55;3.33;;;;;;;23.40;42.96;100565.22;4350217;32;33456;-84
2021/09/25 08:14:40;;;;;;;6.47;3.40;;;;;;;23.54;42.78;100563.38;4362553;32;34422;-84
2021/09/25 08:17:07;;;;;;;5.40;3.12;;;;;;;23.60;42.43;100566.44;4337858;32;34350;-85
2021/09/25 08:19:37;;;;;;;5.72;3.10;;;;;;;23.57;41.96;100573.78;4350451;32;34751;-84
2021/09/25 08:22:05;;;;;;;6.65;3.37;;;;;;;23.79;41.50;100573.06;4349749;32;33250;-85
2021/09/25 08:24:33;;;;;;;6.35;3.20;;;;;;;23.73;41.61;100563.69;4349820;32;34080;-84
2021/09/25 08:27:01;;;;;;;5.37;3.53;;;;;;;23.88;41.27;100572.37;4338153;32;32654;-84
2021/09/25 08:29:29;;;;;;;5.35;3.35;;;;;;;24.04;41.09;100572.13;4350121;32;33133;-84
2021/09/25 08:31:56;;;;;;;4.50;2.65;;;;;;;24.22;40.95;100577.88;4350075;32;33949;-85
2021/09/25 08:34:25;;;;;;;4.55;2.53;;;;;;;24.34;40.63;100573.44;4361805;32;33155;-85
2021/09/25 08:36:52;;;;;;;5.10;2.80;;;;;;;24.57;40.09;100574.38;4337540;32;33280;-84
2021/09/25 08:39:20;;;;;;;5.85;3.15;;;;;;;24.48;40.07;100580.41;4349467;32;32986;-84
2021/09/25 08:41:50;;;;;;;4.37;2.92;;;;;;;24.35;40.15;100570.66;4361635;32;33175;-85
2021/09/25 08:44:20;;;;;;;6.05;3.00;;;;;;;24.55;39.73;100580.78;4361604;32;34062;-84
2021/09/25 08:46:47;;;;;;;5.07;2.35;;;;;;;24.53;39.86;100570.25;4349214;32;32627;-85
2021/09/25 08:49:16;;;;;;;4.80;2.80;;;;;;;24.73;39.29;100570.53;4361796;32;32783;-85
2021/09/25 08:51:43;;;;;;;7.72;2.87;;;;;;;24.86;38.96;100573.94;4349406;32;33599;-85
2021/09/25 08:54:11;;;;;;;5.05;3.08;;;;;;;25.24;38.25;100572.72;4349936;32;33948;-85
2021/09/25 08:56:38;;;;;;;4.72;2.58;;;;;;;25.03;38.28;100569.13;4361954;32;33033;-85
2021/09/25 08:59:06;;;;;;;6.40;2.70;;;;;;;25.35;37.26;100571.91;4337207;32;32946;-84
2021/09/25 09:01:34;;;;;;;5.72;3.40;;;;;;;25.31;37.37;100573.94;4349663;32;33018;-85
2021/09/25 09:04:06;;;;;;;6.32;3.00;;;;;;;25.27;37.91;100572.47;4374430;32;33827;-84
2021/09/25 09:06:36;;;;;;;6.65;3.10;;;;;;;25.23;38.07;100573.69;4361698;32;33625;-85
2021/09/25 09:09:12;;;;;;;7.30;3.10;;;;;;;25.18;38.14;100568.75;4361833;32;34505;-85
2021/09/25 09:11:43;;;;;;;7.72;4.12;;;;;;;25.63;37.24;100567.88;4325481;32;33047;-86
2021/09/25 09:14:15;;;;;;;5.78;3.25;;;;;;;25.65;37.22;100573.06;4361525;32;33868;-85
2021/09/25 09:16:57;;;;;;;7.03;3.40;;;;;;;25.72;36.67;100568.09;4349559;32;32495;-86
2021/09/25 09:19:24;;;;;;;6.78;3.42;;;;;;;25.71;37.18;100580.56;4361953;32;34149;-86
2021/09/25 09:21:52;;;;;;;6.20;3.58;;;;;;;25.81;37.12;100573.50;4337536;32;34223;-85
2021/09/25 09:24:20;;;;;;;7.57;3.40;;;;;;;26.14;36.52;100573.56;4349852;32;33657;-85
2021/09/25 09:26:47;;;;;;;7.07;3.20;;;;;;;26.50;35.87;100571.44;4349889;32;32642;-84
2021/09/25 09:29:18;;;;;;;6.20;2.85;;;;;;;26.75;35.23;100564.84;4350252;32;34731;-85
2021/09/25 09:31:45;;;;;;;5.85;3.03;;;;;;;26.82;34.74;100565.16;4361417;32;33178;-84
2021/09/25 09:34:16;;;;;;;5.18;2.90;;;;;;;26.23;35.35;100569.25;4361536;32;33235;-84
2021/09/25 09:36:44;;;;;;;4.85;3.10;;;;;;;25.97;36.22;100570.41;4349563;32;32828;-85
2021/09/25 09:39:15;;;;;;;6.00;3.17;;;;;;;26.44;35.40;100563.91;4361904;32;33633;-85
2021/09/25 09:41:46;;;;;;;6.10;3.12;;;;;;;26.83;34.47;100569.50;4361717;32;33188;-85
2021/09/25 09:44:20;;;;;;;5.60;3.15;;;;;;;26.57;35.08;100567.25;4349351;32;33271;-85
2021/09/25 09:46:49;;;;;;;5.00;2.95;;;;;;;26.70;34.84;100577.72;4374134;32;33153;-85
2021/09/25 09:49:18;;;;;;;6.00;3.42;;;;;;;26.87;34.71;100579.00;4361708;32;33744;-85
2021/09/25 09:51:49;;;;;;;5.80;2.92;;;;;;;27.21;33.79;100565.31;4361574;32;33806;-85
2021/09/25 09:54:24;;;;;;;5.60;3.07;;;;;;;27.53;33.33;100569.66;4361427;32;33639;-85
2021/09/25 09:57:08;;;;;;;4.72;3.05;;;;;;;27.77;32.93;100571.12;4361576;32;33180;-84
2021/09/25 09:59:38;;;;;;;5.75;3.35;;;;;;;27.81;32.42;100568.03;4361506;32;34274;-85
2021/09/25 10:02:06;;;;;;;5.60;3.10;;;;;;;27.39;32.92;100570.91;4363684;32;33426;-85
2021/09/25 10:04:35;;;;;;;5.87;3.30;;;;;;;27.66;32.56;100567.56;4377509;32;34705;-86
2021/09/25 10:07:06;;;;;;;7.15;3.20;;;;;;;27.43;32.74;100577.69;4361851;32;32950;-85
2021/09/25 10:09:35;;;;;;;5.65;3.20;;;;;;;26.81;34.03;100579.50;4374092;32;34034;-85
2021/09/25 10:12:12;;;;;;;7.22;3.90;;;;;;;27.41;32.95;100568.94;4361545;32;35429;-86
2021/09/25 10:14:41;;;;;;;6.90;3.22;;;;;;;27.52;33.06;100569.81;4360952;32;33023;-85
2021/09/25 10:17:12;;;;;;;6.45;2.80;;;;;;;27.32;32.88;100567.03;4348389;32;34001;-85
2021/09/25 10:19:41;;;;;;;6.80;2.97;;;;;;;27.89;32.26;100566.47;4361142;32;32803;-86
2021/09/25 10:22:16;;;;;;;5.47;2.90;;;;;;;28.08;32.10;100558.50;4348681;32;33833;-85
2021/09/25 10:24:47;;;;;;;4.62;2.83;;;;;;;28.27;31.67;100562.97;4361291;32;33898;-86
2021/09/25 10:27:15;;;;;;;4.55;2.90;;;;;;;28.28;31.27;100566.50;4361079;32;32818;-86
2021/09/25 10:29:48;;;;;;;6.25;2.97;;;;;;;28.43;31.04;100557.03;4360905;32;34043;-86
2021/09/25 10:32:28;;;;;;;6.20;3.17;;;;;;;28.62;30.77;100558.81;4347541;32;33574;-85
2021/09/25 10:35:16;;;;;;;4.78;2.90;;;;;;;28.91;30.35;100559.75;4360960;32;33742;-85
2021/09/25 10:37:52;;;;;;;4.80;3.00;;;;;;;29.04;30.06;100554.91;4360674;32;32851;-85
2021/09/25 10:40:42;;;;;;;6.28;3.22;;;;;;;29.16;30.04;100556.38;4360729;32;33786;-85
2021/09/25 10:43:28;;;;;;;5.12;3.10;;;;;;;29.12;29.90;100562.22;4336088;32;33269;-86
2021/09/25 10:46:00;;;;;;;4.95;3.12;;;;;;;28.72;30.11;100552.59;4336630;32;34192;-86
2021/09/25 10:48:30;;;;;;;6.93;3.10;;;;;;;29.10;29.76;100542.72;4348484;32;32943;-84
2021/09/25 10:51:11;;;;;;;6.37;3.03;;;;;;;29.34;29.46;100550.25;4360022;32;32921;-86
2021/09/25 10:53:41;;;;;;;4.85;2.83;;;;;;;29.45;29.41;100546.50;4361068;32;33228;-86
2021/09/25 10:56:20;;;;;;;4.93;3.40;;;;;;;29.63;29.06;100543.84;4348391;32;33449;-85
2021/09/25 10:59:01;;;;;;;6.20;2.58;;;;;;;29.20;29.46;100556.06;4360736;32;32803;-85
2021/09/25 11:01:33;;;;;;;5.10;2.77;;;;;;;29.58;28.77;100546.16;4360094;32;33423;-86
2021/09/25 11:04:32;;;;;;;4.43;2.75;;;;;;;29.65;28.77;100555.31;4360970;32;34102;-85
2021/09/25 11:07:02;;;;;;;7.43;2.85;;;;;;;29.55;28.78;100549.97;4369628;32;33877;-84
2021/09/25 11:09:39;;;;;;;5.87;2.90;;;;;;;29.99;28.20;100544.72;4348299;32;32419;-85
2021/09/25 11:12:09;;;;;;;6.05;3.00;;;;;;;29.85;28.38;100542.56;4360585;32;33910;-86
2021/09/25 11:14:51;;;;;;;5.03;2.70;;;;;;;29.99;28.10;100539.34;4372797;32;33729;-85
2021/09/25 11:17:19;;;;;;;5.50;3.12;;;;;;;30.01;28.19;100535.66;4360723;32;34906;-85
2021/09/25 11:19:52;;;;;;;6.68;3.05;;;;;;;29.79;28.31;100532.44;4348049;32;33646;-85
2021/09/25 11:22:25;;;;;;;6.53;2.80;;;;;;;30.07;27.95;100521.63;4360397;32;33888;-86
2021/09/25 11:25:14;;;;;;;7.62;3.40;;;;;;;29.72;28.05;100526.00;4360145;32;34113;-85
2021/09/25 11:27:54;;;;;;;5.80;2.90;;;;;;;29.14;28.91;100528.00;4360191;32;33828;-84
2021/09/25 11:30:24;;;;;;;5.20;2.75;;;;;;;30.08;27.82;100513.41;4359737;32;33103;-86
2021/09/25 11:33:00;;;;;;;7.22;3.10;;;;;;;30.29;27.23;100507.69;4359081;32;33052;-85
2021/09/25 11:35:36;;;;;;;6.50;3.40;;;;;;;30.32;26.99;100512.72;4360385;32;34934;-86